createdAt,value
2019-02-15T00:01:46.833Z,13.37
2019-02-15T00:04:17.493Z,10.90
2019-02-15T00:06:47.964Z,10.10
2019-02-15T00:09:18.189Z,9.53
2019-02-15T00:11:48.760Z,9.53
2019-02-15T00:14:19.813Z,9.00
2019-02-15T00:16:50.412Z,9.63
2019-02-15T00:19:30.690Z,9.30
2019-02-15T00:22:01.226Z,10.27
2019-02-15T00:24:31.831Z,9.20
2019-02-15T00:27:02.434Z,10.57
2019-02-15T00:29:32.642Z,9.87
2019-02-15T00:32:03.253Z,9.97
2019-02-15T00:34:33.499Z,10.07
2019-02-15T00:37:04.202Z,10.50
2019-02-15T00:39:35.218Z,10.90
2019-02-15T00:42:06.053Z,10.87
2019-02-15T00:44:36.784Z,10.07
2019-02-15T00:47:25.105Z,8.87
2019-02-15T00:50:27.032Z,7.57
2019-02-15T00:53:15.477Z,7.27
2019-02-15T00:56:04.886Z,7.40
2019-02-15T00:58:54.074Z,7.10
2019-02-15T01:01:49.173Z,6.53
2019-02-15T01:04:51.136Z,7.43
2019-02-15T01:07:49.298Z,7.10
2019-02-15T01:10:34.233Z,7.37
2019-02-15T01:13:08.564Z,7.43
2019-02-15T01:15:39.287Z,7.73
2019-02-15T01:18:09.595Z,7.87
2019-02-15T01:20:40.145Z,8.47
2019-02-15T01:23:10.475Z,8.50
2019-02-15T01:25:45.989Z,8.03
2019-02-15T01:28:22.897Z,8.20
2019-02-15T01:31:13.492Z,7.53
2019-02-15T01:34:06.557Z,8.10
2019-02-15T01:37:02.377Z,8.80
2019-02-15T01:39:53.585Z,8.17
2019-02-15T01:42:42.143Z,7.93
2019-02-15T01:45:17.375Z,7.30
2019-02-15T01:47:49.388Z,8.97
2019-02-15T01:50:19.573Z,9.90
2019-02-15T01:52:49.870Z,9.67
2019-02-15T01:55:20.793Z,9.27
2019-02-15T01:57:51.666Z,9.80
2019-02-15T02:00:24.015Z,10.53
2019-02-15T02:02:54.655Z,9.97
2019-02-15T02:05:25.275Z,9.40
2019-02-15T02:07:55.616Z,10.10
2019-02-15T02:10:27.385Z,9.43
2019-02-15T02:12:58.334Z,9.13
2019-02-15T02:15:28.957Z,9.03
2019-02-15T02:17:59.582Z,8.90
2019-02-15T02:20:30.902Z,9.10
2019-02-15T02:23:01.846Z,8.77
2019-02-15T02:25:32.499Z,7.97
2019-02-15T02:28:02.718Z,8.50
2019-02-15T02:30:33.275Z,8.53
2019-02-15T02:33:03.574Z,9.23
2019-02-15T02:35:33.853Z,8.57
2019-02-15T02:38:04.171Z,8.03
2019-02-15T02:40:34.730Z,8.33
2019-02-15T02:43:04.969Z,8.77
2019-02-15T02:45:35.517Z,9.20
2019-02-15T02:48:06.146Z,8.77
2019-02-15T02:50:36.791Z,8.07
2019-02-15T02:53:07.517Z,8.47
2019-02-15T02:55:39.274Z,8.47
2019-02-15T02:58:09.894Z,8.60
2019-02-15T03:00:40.157Z,8.10
2019-02-15T03:03:10.950Z,8.90
2019-02-15T03:05:41.881Z,8.17
2019-02-15T03:08:12.225Z,8.10
2019-02-15T03:10:42.498Z,8.20
2019-02-15T03:13:13.083Z,8.27
2019-02-15T03:15:43.342Z,8.27
2019-02-15T03:19:37.298Z,8.30
2019-02-15T03:22:08.468Z,8.63
2019-02-15T03:24:39.375Z,7.93
2019-02-15T03:27:10.027Z,8.47
2019-02-15T03:29:40.309Z,7.90
2019-02-15T03:32:10.591Z,7.93
2019-02-15T03:34:41.186Z,7.63
2019-02-15T03:37:33.525Z,8.77
2019-02-15T03:40:08.668Z,8.97
2019-02-15T03:42:38.927Z,8.67
2019-02-15T03:45:09.522Z,8.13
2019-02-15T03:47:40.302Z,8.77
2019-02-15T03:50:12.004Z,8.27
2019-02-15T03:52:42.646Z,8.60
2019-02-15T03:55:12.963Z,8.97
2019-02-15T03:57:43.503Z,10.13
2019-02-15T04:00:14.549Z,8.63
2019-02-15T04:02:45.177Z,8.50
2019-02-15T04:05:16.831Z,9.93
2019-02-15T04:07:47.769Z,9.90
2019-02-15T04:10:18.397Z,9.40
2019-02-15T04:12:49.029Z,9.30
2019-02-15T04:15:19.309Z,9.60
2019-02-15T04:17:49.538Z,9.93
2019-02-15T04:20:20.106Z,9.53
2019-02-15T04:22:50.738Z,10.00
2019-02-15T04:25:21.371Z,10.00
2019-02-15T04:27:52.106Z,8.67
2019-02-15T04:30:22.749Z,9.83
2019-02-15T04:32:53.743Z,8.80
2019-02-15T04:35:25.016Z,8.80
2019-02-15T04:37:55.674Z,8.43
2019-02-15T04:40:25.936Z,10.93
2019-02-15T04:42:56.472Z,10.57
2019-02-15T04:45:26.794Z,10.47
2019-02-15T04:47:57.365Z,9.80
2019-02-15T04:50:28.700Z,10.87
2019-02-15T04:52:59.352Z,9.73
2019-02-15T04:55:30.380Z,10.10
2019-02-15T04:58:00.918Z,9.30
2019-02-15T05:00:31.185Z,9.87
2019-02-15T05:03:01.781Z,9.87
2019-02-15T05:05:32.092Z,9.00
2019-02-15T05:08:02.966Z,8.30
2019-02-15T05:10:33.216Z,8.93
2019-02-15T05:13:03.446Z,8.83
2019-02-15T05:15:34.524Z,8.53
2019-02-15T05:18:04.825Z,8.20
2019-02-15T05:20:36.097Z,8.30
2019-02-15T05:23:06.693Z,8.63
2019-02-15T05:25:37.014Z,8.77
2019-02-15T05:28:09.006Z,9.03
2019-02-15T05:30:39.948Z,8.83
2019-02-15T05:33:10.495Z,8.50
2019-02-15T05:35:42.237Z,8.37
2019-02-15T05:38:13.174Z,8.75
2019-02-15T05:40:43.832Z,8.00
2019-02-15T05:43:14.450Z,8.80
2019-02-15T05:45:46.821Z,11.30
2019-02-15T05:48:18.162Z,8.53
2019-02-15T05:50:48.794Z,8.40
2019-02-15T05:53:19.060Z,8.50
2019-02-15T05:55:49.319Z,8.97
2019-02-15T05:58:19.596Z,8.37
2019-02-15T06:00:50.098Z,9.23
2019-02-15T06:03:20.354Z,8.93
2019-02-15T06:05:50.902Z,10.33
2019-02-15T06:08:21.131Z,9.43
2019-02-15T06:10:52.786Z,10.07
2019-02-15T06:13:23.740Z,10.00
2019-02-15T06:15:54.405Z,10.67
2019-02-15T06:18:25.336Z,9.37
2019-02-15T06:20:55.918Z,9.40
2019-02-15T06:23:26.157Z,9.60
2019-02-15T06:25:56.409Z,9.20
2019-02-15T06:28:26.691Z,9.50
2019-02-15T06:30:57.267Z,10.43
2019-02-15T06:33:27.646Z,12.23
2019-02-15T06:35:57.890Z,10.57
2019-02-15T06:38:34.739Z,13.00
2019-02-15T06:41:01.821Z,16.80
2019-02-15T06:43:32.473Z,12.63
2019-02-15T06:46:02.775Z,11.87
2019-02-15T06:48:33.670Z,11.70
2019-02-15T06:51:03.895Z,12.70
2019-02-15T06:53:34.838Z,12.57
2019-02-15T06:56:05.127Z,11.03
2019-02-15T06:58:45.482Z,11.55
2019-02-15T07:01:22.136Z,11.20
2019-02-15T07:04:17.148Z,13.40
2019-02-15T07:06:48.104Z,12.37
2019-02-15T07:09:18.390Z,11.80
2019-02-15T07:11:48.628Z,9.67
2019-02-15T07:14:20.887Z,10.70
2019-02-15T07:16:51.651Z,10.40
2019-02-15T07:19:21.904Z,9.47
2019-02-15T07:21:52.519Z,10.10
2019-02-15T07:24:22.799Z,9.60
2019-02-15T07:26:53.123Z,8.70
2019-02-15T07:29:23.631Z,10.10
2019-02-15T07:31:54.185Z,10.47
2019-02-15T07:34:24.712Z,10.50
2019-02-15T07:36:55.270Z,10.47
2019-02-15T07:39:25.829Z,9.83
2019-02-15T07:41:56.451Z,10.47
2019-02-15T07:44:27.377Z,10.03
2019-02-15T07:46:58.006Z,10.40
2019-02-15T07:49:28.299Z,10.60
2019-02-15T07:51:59.545Z,12.13
2019-02-15T07:54:29.708Z,12.37
2019-02-15T07:57:00.324Z,11.50
2019-02-15T07:59:31.265Z,11.47
2019-02-15T08:02:02.185Z,12.13
2019-02-15T08:04:32.601Z,11.33
2019-02-15T08:07:02.862Z,10.47
2019-02-15T08:09:33.487Z,10.77
2019-02-15T08:12:04.117Z,11.17
2019-02-15T08:14:34.715Z,10.27
2019-02-15T08:17:04.933Z,11.40
2019-02-15T08:19:35.500Z,9.80
2019-02-15T08:22:05.782Z,10.43
2019-02-15T08:24:36.256Z,9.43
2019-02-15T08:27:06.889Z,10.13
2019-02-15T08:29:37.626Z,9.17
2019-02-15T08:32:07.871Z,8.93
2019-02-15T08:34:38.151Z,8.93
2019-02-15T08:37:08.715Z,8.83
2019-02-15T08:39:39.389Z,8.83
2019-02-15T08:42:09.691Z,9.73
2019-02-15T08:44:40.593Z,9.33
2019-02-15T08:47:10.900Z,9.10
2019-02-15T08:49:41.398Z,9.53
2019-02-15T08:52:11.601Z,8.67
2019-02-15T08:54:42.321Z,8.57
2019-02-15T08:57:12.568Z,8.00
2019-02-15T08:59:43.662Z,6.93
2019-02-15T09:02:22.908Z,7.00
2019-02-15T09:04:53.571Z,7.57
2019-02-15T09:07:23.846Z,6.90
2019-02-15T09:09:54.453Z,6.70
2019-02-15T09:12:24.757Z,6.53
2019-02-15T09:14:55.045Z,7.20
2019-02-15T09:17:27.280Z,6.70
2019-02-15T09:19:57.639Z,6.17
2019-02-15T09:22:28.264Z,6.57
2019-02-15T09:24:58.791Z,6.47
2019-02-15T09:27:37.627Z,5.80
2019-02-15T09:30:10.193Z,5.67
2019-02-15T09:32:40.942Z,4.93
2019-02-15T09:35:12.078Z,5.63
2019-02-15T09:37:42.652Z,5.43
2019-02-15T09:40:12.895Z,4.53
2019-02-15T09:42:43.212Z,4.87
2019-02-15T09:45:14.653Z,5.10
2019-02-15T09:47:47.023Z,4.95
2019-02-15T09:50:17.603Z,4.77
2019-02-15T09:52:48.747Z,5.17
2019-02-15T09:55:19.450Z,4.57
2019-02-15T09:57:49.625Z,4.50
2019-02-15T10:00:20.546Z,4.17
2019-02-15T10:02:51.071Z,3.83
2019-02-15T10:05:21.583Z,4.30
2019-02-15T10:07:51.789Z,4.13
2019-02-15T10:10:22.023Z,3.60
2019-02-15T10:12:52.641Z,4.13
2019-02-15T10:15:23.212Z,4.17
2019-02-15T10:17:53.459Z,3.83
2019-02-15T10:20:24.367Z,3.97
2019-02-15T10:22:55.084Z,2.20
2019-02-15T10:25:26.564Z,2.65
2019-02-15T10:27:56.815Z,2.80
2019-02-15T10:30:27.087Z,2.62
2019-02-15T10:32:57.935Z,3.00
2019-02-15T10:35:28.510Z,3.27
2019-02-15T10:37:59.085Z,3.65
2019-02-15T10:40:29.372Z,3.70
2019-02-15T10:42:59.695Z,3.58
2019-02-15T10:45:30.584Z,3.40
2019-02-15T10:48:00.841Z,3.80
2019-02-15T10:50:31.363Z,3.40
2019-02-15T10:53:02.077Z,3.42
2019-02-15T10:55:32.285Z,3.70
2019-02-15T10:58:02.548Z,3.90
2019-02-15T11:00:33.461Z,3.67
2019-02-15T11:03:03.642Z,3.87
2019-02-15T11:05:34.410Z,3.65
2019-02-15T11:08:04.689Z,3.98
2019-02-15T11:10:35.265Z,3.55
2019-02-15T11:13:05.899Z,2.87
2019-02-15T11:15:36.515Z,3.55
2019-02-15T11:18:06.791Z,3.70
2019-02-15T11:20:37.385Z,3.35
2019-02-15T11:23:07.640Z,2.90
2019-02-15T11:25:37.838Z,3.83
2019-02-15T11:28:08.138Z,3.08
2019-02-15T11:30:38.689Z,3.65
2019-02-15T11:33:09.406Z,3.35
2019-02-15T11:35:39.664Z,3.35
2019-02-15T11:38:10.169Z,3.17
2019-02-15T11:40:41.575Z,3.80
2019-02-15T11:43:12.462Z,3.58
2019-02-15T11:45:42.854Z,3.58
2019-02-15T11:48:13.481Z,2.92
2019-02-15T11:50:43.711Z,3.37
2019-02-15T11:53:14.071Z,3.27
2019-02-15T11:55:45.824Z,4.08
2019-02-15T11:58:16.869Z,3.25
2019-02-15T12:00:47.502Z,3.50
2019-02-15T12:03:18.128Z,3.20
2019-02-15T12:05:48.770Z,3.03
2019-02-15T12:08:19.362Z,3.72
2019-02-15T12:10:50.316Z,3.30
2019-02-15T12:13:20.937Z,3.58
2019-02-15T12:15:51.446Z,3.92
2019-02-15T12:18:22.331Z,2.95
2019-02-15T12:20:52.958Z,2.72
2019-02-15T12:23:23.133Z,3.27
2019-02-15T12:25:53.400Z,3.22
2019-02-15T12:28:23.897Z,3.00
2019-02-15T12:30:55.290Z,3.65
2019-02-15T12:33:25.919Z,3.35
2019-02-15T12:35:56.573Z,3.72
2019-02-15T12:38:26.756Z,3.50
2019-02-15T12:40:57.301Z,3.30
2019-02-15T12:43:27.907Z,3.17
2019-02-15T12:45:58.469Z,2.85
2019-02-15T12:48:29.302Z,2.90
2019-02-15T12:50:59.573Z,3.55
2019-02-15T12:53:30.159Z,2.92
2019-02-15T12:56:00.484Z,2.90
2019-02-15T12:58:31.109Z,3.20
2019-02-15T13:01:01.638Z,2.95
2019-02-15T13:03:32.253Z,3.50
2019-02-15T13:06:02.551Z,2.93
2019-02-15T13:08:33.431Z,2.52
2019-02-15T13:11:03.687Z,2.90
2019-02-15T13:13:34.552Z,3.13
2019-02-15T13:16:05.161Z,3.02
2019-02-15T13:18:35.755Z,2.95
2019-02-15T13:21:06.282Z,3.30
2019-02-15T13:23:36.593Z,2.65
2019-02-15T13:26:08.873Z,2.77
2019-02-15T13:28:39.870Z,2.40
2019-02-15T13:31:10.891Z,3.10
2019-02-15T13:33:41.251Z,2.42
2019-02-15T13:36:11.780Z,3.00
2019-02-15T13:38:42.347Z,2.83
2019-02-15T13:41:12.599Z,2.70
2019-02-15T13:43:43.325Z,2.45
2019-02-15T13:46:14.051Z,2.42
2019-02-15T13:48:44.739Z,2.37
2019-02-15T13:51:14.922Z,2.75
2019-02-15T13:53:45.289Z,2.60
2019-02-15T13:56:15.476Z,2.27
2019-02-15T13:58:45.751Z,1.92
2019-02-15T14:01:16.020Z,2.20
2019-02-15T14:03:46.400Z,2.45
2019-02-15T14:06:16.698Z,2.62
2019-02-15T14:08:47.271Z,2.47
2019-02-15T14:11:17.902Z,2.30
2019-02-15T14:13:48.998Z,2.17
2019-02-15T14:16:19.572Z,2.60
2019-02-15T14:18:49.840Z,2.67
2019-02-15T14:21:20.734Z,2.50
2019-02-15T14:23:51.737Z,2.83
2019-02-15T14:26:22.686Z,2.33
2019-02-15T14:28:52.888Z,2.30
2019-02-15T14:31:23.775Z,3.42
2019-02-15T14:33:54.311Z,2.93
2019-02-15T14:36:24.471Z,1.98
2019-02-15T14:38:55.465Z,2.40
2019-02-15T14:41:26.210Z,2.42
2019-02-15T14:43:56.523Z,1.98
2019-02-15T14:46:26.780Z,2.50
2019-02-15T14:48:58.004Z,2.10
2019-02-15T14:51:28.263Z,1.95
2019-02-15T14:53:58.539Z,2.08
2019-02-15T14:56:29.179Z,1.90
2019-02-15T14:59:00.014Z,2.47
2019-02-15T15:01:30.254Z,1.87
2019-02-15T15:04:01.173Z,2.02
2019-02-15T15:06:31.457Z,1.85
2019-02-15T15:09:01.814Z,2.20
2019-02-15T15:11:34.147Z,1.90
2019-02-15T15:14:04.729Z,1.87
2019-02-15T15:16:34.979Z,2.35
2019-02-15T15:19:05.255Z,2.50
2019-02-15T15:21:36.372Z,2.70
2019-02-15T15:24:06.922Z,3.00
2019-02-15T15:26:37.665Z,2.47
2019-02-15T15:29:07.892Z,2.60
2019-02-15T15:31:38.429Z,2.60
2019-02-15T15:34:08.659Z,3.02
2019-02-15T15:36:39.182Z,3.00
2019-02-15T15:39:09.388Z,2.50
2019-02-15T15:41:39.947Z,2.85
2019-02-15T15:44:11.487Z,2.43
2019-02-15T15:46:42.077Z,2.47
2019-02-15T15:49:12.635Z,2.47
2019-02-15T15:51:42.899Z,3.33
2019-02-15T15:54:13.566Z,3.60
2019-02-15T15:56:44.949Z,4.10
2019-02-15T15:59:15.480Z,3.93
2019-02-15T16:01:47.269Z,3.70
2019-02-15T16:04:17.598Z,4.15
2019-02-15T16:06:48.171Z,4.15
2019-02-15T16:09:18.733Z,4.80
2019-02-15T16:11:49.020Z,4.92
2019-02-15T16:14:19.582Z,4.55
2019-02-15T16:16:50.591Z,5.40
2019-02-15T16:19:21.580Z,5.33
2019-02-15T16:21:52.399Z,5.60
2019-02-15T16:24:23.425Z,5.23
2019-02-15T16:26:53.876Z,5.63
2019-02-15T16:29:24.166Z,6.07
2019-02-15T16:31:54.729Z,6.40
2019-02-15T16:34:25.370Z,5.73
2019-02-15T16:36:55.544Z,6.97
2019-02-15T16:39:25.778Z,6.37
2019-02-15T16:41:56.412Z,7.43
2019-02-15T16:44:27.271Z,6.53
2019-02-15T16:46:57.578Z,6.73
2019-02-15T16:49:28.118Z,7.60
2019-02-15T16:51:58.422Z,6.73
2019-02-15T16:54:29.207Z,6.63
2019-02-15T16:56:59.594Z,6.57
2019-02-15T16:59:30.552Z,6.67
2019-02-15T17:02:01.593Z,7.60
2019-02-15T17:04:32.706Z,7.00
2019-02-15T17:07:03.298Z,8.50
2019-02-15T17:09:34.471Z,8.07
2019-02-15T17:12:04.716Z,8.67
2019-02-15T17:14:35.034Z,8.00
2019-02-15T17:17:05.445Z,7.00
2019-02-15T17:19:35.733Z,8.17
2019-02-15T17:22:06.402Z,7.10
2019-02-15T17:24:37.237Z,8.17
2019-02-15T17:27:07.515Z,8.70
2019-02-15T17:29:38.458Z,8.33
2019-02-15T17:32:08.907Z,7.03
2019-02-15T17:34:39.090Z,6.97
2019-02-15T17:37:09.321Z,8.00
2019-02-15T17:39:39.688Z,8.03
2019-02-15T17:42:10.264Z,8.07
2019-02-15T17:44:41.344Z,8.23
2019-02-15T17:47:11.888Z,7.73
2019-02-15T17:49:43.610Z,7.63
2019-02-15T17:52:14.619Z,7.17
2019-02-15T17:54:45.023Z,7.33
2019-02-15T17:57:15.889Z,7.30
2019-02-15T17:59:46.168Z,8.00
2019-02-15T18:02:16.892Z,8.50
2019-02-15T18:04:47.593Z,8.57
2019-02-15T18:07:18.649Z,8.17
2019-02-15T18:09:49.119Z,7.47
2019-02-15T18:12:19.803Z,7.90
2019-02-15T18:14:51.058Z,7.70
2019-02-15T18:17:22.395Z,6.93
2019-02-15T18:19:52.964Z,7.77
2019-02-15T18:22:23.582Z,6.70
2019-02-15T18:24:54.304Z,6.80
2019-02-15T18:27:25.171Z,8.43
2019-02-15T18:29:56.070Z,7.70
2019-02-15T18:32:26.592Z,7.60
2019-02-15T18:34:57.438Z,7.60
2019-02-15T18:37:28.480Z,6.90
2019-02-15T18:40:00.036Z,8.13
2019-02-15T18:42:31.394Z,8.07
2019-02-15T18:45:02.357Z,7.17
2019-02-15T18:47:32.832Z,8.17
2019-02-15T18:50:03.998Z,7.30
2019-02-15T18:52:34.745Z,7.40
2019-02-15T18:55:05.819Z,7.80
2019-02-15T18:57:36.890Z,7.83
2019-02-15T19:00:09.516Z,7.77
2019-02-15T19:02:40.254Z,7.10
2019-02-15T19:05:12.375Z,7.93
2019-02-15T19:07:43.282Z,7.27
2019-02-15T19:10:15.733Z,7.53
2019-02-15T19:12:46.170Z,8.57
2019-02-15T19:15:16.902Z,7.80
2019-02-15T19:17:47.785Z,8.27
2019-02-15T19:20:20.805Z,7.40
2019-02-15T19:22:51.477Z,7.73
2019-02-15T19:25:22.253Z,7.10
2019-02-15T19:27:53.287Z,7.73
2019-02-15T19:30:24.788Z,10.10
2019-02-15T19:32:55.418Z,7.80
2019-02-15T19:35:26.914Z,7.40
2019-02-15T19:37:57.703Z,7.17
2019-02-15T19:40:28.079Z,7.23
2019-02-15T19:43:00.333Z,6.60
2019-02-15T19:45:31.101Z,7.63
2019-02-15T19:48:01.419Z,7.00
2019-02-15T19:50:32.518Z,7.07
2019-02-15T19:53:03.510Z,7.87
2019-02-15T19:55:33.844Z,7.57
2019-02-15T19:58:04.180Z,7.47
2019-02-15T20:00:35.734Z,6.67
2019-02-15T20:03:06.618Z,9.87
2019-02-15T20:05:37.363Z,7.97
2019-02-15T20:08:10.913Z,6.77
2019-02-15T20:10:41.648Z,7.67
2019-02-15T20:13:12.035Z,8.50
2019-02-15T20:15:43.213Z,7.87
2019-02-15T20:18:13.830Z,8.23
2019-02-15T20:20:44.739Z,7.97
2019-02-15T20:23:15.905Z,8.33
2019-02-15T20:25:46.560Z,7.57
2019-02-15T20:28:17.022Z,7.10
2019-02-15T20:30:48.060Z,6.80
2019-02-15T20:33:18.951Z,7.03
2019-02-15T20:35:49.481Z,7.27
2019-02-15T20:38:20.019Z,7.53
2019-02-15T20:40:50.750Z,8.07
2019-02-15T20:43:21.596Z,8.00
2019-02-15T20:45:51.994Z,7.77
2019-02-15T20:48:22.769Z,7.30
2019-02-15T20:50:53.075Z,7.80
2019-02-15T20:53:23.804Z,7.80
2019-02-15T20:55:54.136Z,7.80
2019-02-15T20:58:24.761Z,7.53
2019-02-15T21:00:56.338Z,7.57
2019-02-15T21:03:27.461Z,7.60
2019-02-15T21:05:58.091Z,7.43
2019-02-15T21:08:31.630Z,8.33
2019-02-15T21:11:01.887Z,7.50
2019-02-15T21:13:32.726Z,7.70
2019-02-15T21:16:03.072Z,9.60
2019-02-15T21:18:33.842Z,9.90
2019-02-15T21:21:05.000Z,9.60
2019-02-15T21:23:35.659Z,10.20
2019-02-15T21:26:06.006Z,9.83
2019-02-15T21:28:36.853Z,11.17
2019-02-15T21:31:07.149Z,10.27
2019-02-15T21:33:38.424Z,9.90
2019-02-15T21:36:08.728Z,10.00
2019-02-15T21:38:39.637Z,10.07
2019-02-15T21:41:10.522Z,9.97
2019-02-15T21:43:41.238Z,9.10
2019-02-15T21:46:12.207Z,10.13
2019-02-15T21:48:42.796Z,10.10
2019-02-15T21:51:14.292Z,10.60
2019-02-15T21:53:44.597Z,9.63
2019-02-15T21:56:14.904Z,9.83
2019-02-15T21:58:45.251Z,9.33
2019-02-15T22:01:15.879Z,8.90
2019-02-15T22:03:47.053Z,9.77
2019-02-15T22:06:17.524Z,9.10
2019-02-15T22:08:48.583Z,9.13
2019-02-15T22:11:19.438Z,9.03
2019-02-15T22:13:50.356Z,8.70
2019-02-15T22:16:21.630Z,8.93
2019-02-15T22:18:52.154Z,8.33
2019-02-15T22:21:23.288Z,8.23
2019-02-15T22:23:53.936Z,8.07
2019-02-15T22:26:24.258Z,8.93
2019-02-15T22:28:57.314Z,8.47
2019-02-15T22:31:27.564Z,8.60
2019-02-15T22:33:58.164Z,7.97
2019-02-15T22:36:28.676Z,8.53
2019-02-15T22:38:59.278Z,8.47
2019-02-15T22:41:29.879Z,7.80
2019-02-15T22:44:00.149Z,8.33
2019-02-15T22:46:31.102Z,7.70
2019-02-15T22:49:02.373Z,9.03
2019-02-15T22:51:32.712Z,7.80
2019-02-15T22:54:03.466Z,8.90
2019-02-15T22:56:34.060Z,9.57
2019-02-15T22:59:04.858Z,9.03
2019-02-15T23:01:36.620Z,9.53
2019-02-15T23:04:07.219Z,9.50
2019-02-15T23:06:38.359Z,9.00
2019-02-15T23:09:20.463Z,10.50
2019-02-15T23:11:50.914Z,9.40
2019-02-15T23:14:22.195Z,9.70
2019-02-15T23:16:53.420Z,10.07
2019-02-15T23:19:24.674Z,10.17
2019-02-15T23:21:55.564Z,9.57
2019-02-15T23:24:25.855Z,10.23
2019-02-15T23:26:56.619Z,9.77
2019-02-15T23:29:27.665Z,9.40
2019-02-15T23:31:58.302Z,10.10
2019-02-15T23:34:28.940Z,9.93
2019-02-15T23:36:59.253Z,10.63
2019-02-15T23:39:29.515Z,10.53
2019-02-15T23:42:00.420Z,9.50
2019-02-15T23:44:31.351Z,9.97
2019-02-15T23:47:01.573Z,9.83
2019-02-15T23:49:32.175Z,9.47
2019-02-15T23:52:02.430Z,10.63
2019-02-15T23:54:32.694Z,9.57
2019-02-15T23:57:03.676Z,9.47
2019-02-15T23:59:34.705Z,9.17
